Mc Ghee Tyson Airport
KTYS : now visible

Airfield :











YOU CAN JOIN US ON...

 
LOGIN :

Register | Disclaimer

   EN    FR    IT 

 









Legend :    VFR   Marginal VFR   IFR   Intensive IFR   Very Intensive IFR
Visi :
Ceiling :
>= 8 km
>= 3000ft
5 to 8 km
1000 to 3000 ft
1500m to 5 km
500 to 1000 ft
800 to 1500m
200 to 500 ft
< 800m
< 200 ft
Symbols :   Thunderstorms  Fog  Heavy snow  Heavy precipitations  Wind > 20 kt






- Airport Elevation : 981 ft
- IATA code : TYS


KTYS - Mc Ghee Tyson

CURRENT METAR :
  • 291253Z 00000KT 10SM BKN100 BKN250 03/01 A3006 RMK AO2 SLP181 T00280006 $

EXPIRED METARs :
  • 291153Z 00000KT 10SM OVC100 02/01 A3004 RMK AO2 SLP173 T00220006 10033 20011 51009 $
  • 291053Z 00000KT 10SM SCT060 SCT095 OVC120 03/01 A3003 RMK AO2 SLP169 T00280006 $

TAF KTYS
Valid from the 29 at 12:00 until the 30 at 12:00 UTC


291120Z 2912/3012 VRB03KT P6SM SCT045 BKN070
FM291600 03004KT P6SM VCSH BKN035 OVC060
FM300200 00000KT P6SM OVC040
FM300900 00000KT P6SM BKN024



MET'MAP, your aeronautical weather chart ! - Copyright ORBIFLY December 2007 - Disclaimer

ORBIFLY MET'MAP TEAM :

Programming & Development : Alexandra Zaïnal
Concept & original design : Baudouin d'Aumeries
Assistance for programming : Marc-Olivier Méhu
Technical & hardware support : Manuel Goepfert

Contact : metmap@orbifly.com




SOURCES & CREDITS :

   NOAA       Earth
Advisory